This is the latest recevied weather packets stored in our database for station/object BMCB-34. If no packets are shown the sender has not sent any weather packets the latest 10 day(s).
| Time | Temp. | Humidity | Pressure | Rain* | Wind** | Luminosity | Snow |
|---|---|---|---|---|---|---|---|
| 1777225828 | 20° C | 33% | 1015.6 hPa | 0 mm | - | 106 W/m² | - |
| 1777224040 | 20.56° C | 32% | 1015.5 hPa | 0 mm | - | 204 W/m² | - |
| 1777222834 | 21.11° C | 31% | 1015.5 hPa | 0 mm | - | 260 W/m² | - |
| 1777216838 | 20.56° C | 32% | 1016 hPa | 0 mm | - | 500 W/m² | - |
| 1777216239 | 20.56° C | 33% | 1016.1 hPa | 0 mm | - | 536 W/m² | - |
| 1777211435 | 20.56° C | 32% | 1016.6 hPa | 0 mm | - | 646 W/m² | - |
| 1777210832 | 20° C | 32% | 1016.8 hPa | 0 mm | - | 670 W/m² | - |
| 1777207230 | 19.44° C | 34% | 1017.1 hPa | 0 mm | - | 702 W/m² | - |
| 1777206616 | 19.44° C | 37% | 1017.2 hPa | 0 mm | - | 700 W/m² | - |
| 1777205417 | 18.89° C | 39% | 1017.3 hPa | 0 mm | - | 698 W/m² | - |
| 1777204222 | 18.89° C | 38% | 1017.3 hPa | 0 mm | - | 700 W/m² | - |
| 1777203624 | 18.89° C | 39% | 1017.4 hPa | 0 mm | - | 692 W/m² | - |
| 1777201822 | 17.78° C | 39% | 1017.8 hPa | 0 mm | - | 666 W/m² | - |
| 1777198222 | 16.67° C | 41% | 1018.3 hPa | 0 mm | - | 592 W/m² | - |
| 1777197623 | 16.67° C | 41% | 1018.3 hPa | 0 mm | - | 592 W/m² | - |
| 1777195824 | 15° C | 44% | 1018.6 hPa | 0 mm | - | 540 W/m² | - |
| 1777192223 | 12.78° C | 51% | 1018.6 hPa | 0 mm | - | 382 W/m² | - |
| 1777191021 | 12.22° C | 53% | 1018.7 hPa | 0 mm | - | 340 W/m² | - |
| 1777190422 | 12.22° C | 55% | 1018.7 hPa | 0 mm | - | 318 W/m² | - |
| 1777186823 | 10° C | 59% | 1018.6 hPa | 0 mm | - | 176 W/m² | - |
| 1777183823 | 8.89° C | 60% | 1018.5 hPa | 0 mm | - | 90 W/m² | - |
| 1777183821 | 8.89° C | 60% | 1018.5 hPa | 0 mm | - | 86 W/m² | - |
| 1777183223 | 8.33° C | 64% | 1018.3 hPa | 0 mm | - | 78 W/m² | - |
| 1777182023 | 6.11° C | 73% | 1018.3 hPa | 0 mm | - | 34 W/m² | - |
| 1777180223 | 6.11° C | 69% | 1018 hPa | 0 mm | - | 14 W/m² | - |
* Rain latest hour (hover to see other rain measurements)
** Current wind speed in m/s (hover to see current wind gust speed)